Latest Weather Observations for Albury

IDN60801

Issued at 12:05 pm EST Saturday 2 August 2014 (issued every 30 minutes, with the page automatically refreshed every 10 minutes)

About weather observations | Map of weather stations | Latest weather observations for NSW | Other Formats
Station Details ID: 072160 Name: ALBURY AIRPORT AWS Lat: -36.07 Lon: 146.95 Height: 163.5 m
Data from the previous 72 hours. | See also: Recent months at Albury
Date/Time
EST
Temp
°C
App
Temp
°C
Dew
Point
Rel
Hum
%
Delta-T
°C
Wind Press
QNH
hPa
Press
MSL
hPa
Rain
since 9 am
mm
Dir
 
Spd
km/h
Gust
km/h
Spd
kts
Gust
kts
02/12:00pm 8.5 6.2 2.5 66 2.5 E 4 9 2 5 1029.9 1030.2 0.0
02/11:30am 7.4 4.5 2.7 72 2.0 ENE 7 9 4 5 1030.1 - 0.0
02/11:00am 7.3 4.7 3.0 74 1.8 NE 6 7 3 4 1030.0 1030.3 0.0
02/10:30am 6.2 3.6 3.0 80 1.3 ESE 6 9 3 5 1029.8 - 0.0
02/10:00am 5.5 2.6 2.5 81 1.2 ESE 7 11 4 6 1029.5 1029.8 0.0
02/09:30am 4.3 1.5 1.8 84 1.0 SE 6 7 3 4 1029.3 - 0.0
02/09:00am 3.2 0.7 1.6 89 0.6 E 4 9 2 5 1028.8 1029.1 2.2
02/08:30am 2.4 -0.4 2.1 98 0.1 ENE 6 9 3 5 1028.2 - 2.2
02/08:00am 0.6 -3.0 0.5 99 0.0 E 9 9 5 5 1027.5 1027.8 2.2
02/07:30am -0.5 -2.6 -0.6 99 0.0 CALM 0 0 0 0 1026.9 - 2.2
02/07:00am -1.0 -4.5 -1.4 97 0.1 E 7 11 4 6 1026.4 1026.7 2.2
02/06:30am -0.1 -2.9 -0.5 97 0.1 E 4 9 2 5 1025.7 - 2.2
02/06:00am 0.8 -1.1 0.5 98 0.1 N 0 4 0 2 1025.0 1025.3 2.2
02/05:30am 0.0 -4.6 -0.7 95 0.3 WNW 13 15 7 8 1024.6 - 2.2
02/05:00am 0.9 -1.8 0.5 97 0.1 N 4 7 2 4 1024.2 1024.5 2.2
02/04:30am 0.9 -2.7 0.3 96 0.2 NW 9 11 5 6 1024.1 - 2.2
02/04:00am 1.0 -2.3 0.3 95 0.3 W 7 9 4 5 1023.7 1024.0 2.2
02/03:30am 1.3 -2.0 0.4 94 0.3 NW 7 11 4 6 1023.5 - 2.2
02/03:00am 1.6 -1.0 0.9 95 0.3 N 4 9 2 5 1023.0 1023.2 2.2
02/02:30am 1.5 -1.6 0.3 92 0.4 NE 6 9 3 5 1022.7 - 2.2
02/02:00am 2.4 -1.4 1.5 94 0.3 W 11 15 6 8 1022.5 1022.7 2.2
02/01:30am 1.9 -2.1 0.7 92 0.5 W 11 15 6 8 1021.9 - 2.2
02/01:00am 2.6 -1.3 1.4 92 0.5 W 11 13 6 7 1021.7 1022.0 2.2
02/12:30am 3.3 -1.3 1.5 88 0.7 W 15 19 8 10 1021.5 - 2.2
02/12:00am 3.7 -0.8 2.1 89 0.6 W 15 20 8 11 1020.8 1021.1 2.2
 
Date/Time
EST
Temp
°C
App
Temp
°C
Dew
Point
Rel
Hum
%
Delta-T
°C
Wind Press
QNH
hPa
Press
MSL
hPa
Rain
since 9 am
mm
Dir
 
Spd
km/h
Gust
km/h
Spd
kts
Gust
kts
01/11:30pm 4.1 -0.8 2.1 87 0.8 W 17 22 9 12 1020.3 - 2.2
01/11:15pm 4.1 -0.8 2.0 86 0.8 W 17 20 9 11 1020.0 - 2.2
01/11:00pm 4.4 -0.9 1.9 84 1.0 W 19 26 10 14 1020.3 1020.6 2.2
01/10:48pm 4.7 -0.6 2.1 83 1.1 W 19 28 10 15 1019.9 - 2.2
01/10:30pm 4.8 -0.4 2.2 83 1.1 W 19 28 10 15 1019.6 - 2.2
01/10:00pm 5.1 -1.1 2.3 82 1.1 WNW 24 32 13 17 1019.0 1019.3 2.2
01/09:30pm 4.7 0.6 2.2 84 1.0 W 13 17 7 9 1018.6 - 2.2
01/09:00pm 5.2 -0.2 2.6 83 1.1 W 20 30 11 16 1017.9 1018.1 2.2
01/08:30pm 5.3 -0.8 2.8 84 1.0 W 24 32 13 17 1017.2 - 2.2
01/08:00pm 5.1 -0.2 2.8 85 0.9 WNW 20 24 11 13 1016.8 1017.0 2.2
01/07:30pm 4.9 0.5 2.8 86 0.9 W 15 19 8 10 1016.3 - 2.2
01/07:00pm 5.4 0.6 2.6 82 1.2 W 17 20 9 11 1015.3 1015.6 2.2
01/06:30pm 6.8 0.3 4.6 86 1.0 W 28 41 15 22 1014.6 - 2.2
01/06:00pm 6.7 1.3 4.4 85 1.0 WNW 22 30 12 16 1013.7 1014.0 2.2
01/05:31pm 7.0 1.6 4.3 83 1.2 WNW 22 30 12 16 1012.9 - 2.2
01/05:30pm 7.1 1.7 4.4 83 1.2 WNW 22 30 12 16 1012.8 - 2.2
01/05:03pm 7.1 2.6 4.4 83 1.2 WNW 17 28 9 15 1012.2 - 2.2
01/05:00pm 7.2 2.7 4.2 81 1.3 WNW 17 26 9 14 1012.1 1012.3 2.2
01/04:30pm 6.9 1.9 4.4 84 1.1 WNW 20 32 11 17 1011.6 - 2.2
01/04:19pm 6.6 1.6 4.4 86 1.0 W 20 28 11 15 1011.5 - 2.2
01/04:01pm 6.5 0.3 4.3 86 1.0 W 26 37 14 20 1011.4 - 2.2
01/04:00pm 6.6 0.4 4.4 86 1.0 W 26 37 14 20 1011.4 1011.6 2.0
01/03:30pm 7.6 2.7 5.2 85 1.1 W 20 30 11 16 1010.6 - 1.8
01/03:15pm 6.8 1.9 5.0 88 0.8 WNW 20 28 11 15 1010.5 - 1.8
01/03:00pm 6.7 1.7 3.7 81 1.3 W 19 26 10 14 1010.2 1010.4 1.4
01/02:40pm 6.4 1.3 3.9 84 1.1 WNW 20 28 11 15 1010.2 - 1.4
01/02:37pm 6.3 0.9 4.3 87 0.9 WNW 22 30 12 16 1010.2 - 1.4
01/02:31pm 5.1 -1.7 3.0 86 0.9 WNW 28 46 15 25 1010.1 - 1.4
01/02:30pm 5.1 -2.1 3.0 86 0.9 WNW 30 46 16 25 1010.2 - 1.4
01/02:29pm 5.0 -2.6 3.0 87 0.8 WNW 32 50 17 27 1010.2 - 1.4
01/02:22pm 4.9 -4.0 3.1 88 0.7 WNW 39 54 21 29 1010.4 - 1.4
01/02:16pm 6.0 -2.8 3.5 84 1.1 WNW 39 54 21 29 1010.2 - 0.8
01/02:13pm 6.7 -2.5 3.3 79 1.4 WNW 41 54 22 29 1009.8 - 0.8
01/02:00pm 8.1 2.6 3.9 75 1.8 NW 22 35 12 19 1009.2 1009.5 0.8
01/01:45pm 7.5 2.4 4.1 79 1.5 WNW 20 30 11 16 1009.5 - 0.8
01/01:30pm 7.3 2.3 4.4 82 1.3 NW 20 28 11 15 1009.4 - 0.8
01/01:25pm 7.5 2.6 5.0 84 1.1 NW 20 26 11 14 1009.4 - 0.8
01/01:00pm 7.4 2.4 4.5 82 1.3 NW 20 26 11 14 1009.5 1009.7 0.8
01/12:54pm 7.5 2.5 4.8 83 1.2 NW 20 30 11 16 1009.5 - 0.8
01/12:30pm 6.9 1.1 4.6 85 1.0 NW 24 37 13 20 1009.7 - 0.8
01/12:00pm 6.8 2.5 5.3 90 0.7 NW 17 22 9 12 1009.8 1010.0 0.8
01/11:52am 6.6 1.9 5.1 90 0.7 NW 19 28 10 15 1009.9 - 0.8
01/11:32am 6.4 1.4 4.7 89 0.7 NNW 20 30 11 16 1010.0 - 0.4
01/11:30am 6.4 1.4 4.7 89 0.7 NNW 20 30 11 16 1010.0 - 0.4
01/11:00am 7.2 2.1 4.0 80 1.4 NNW 20 28 11 15 1009.9 1010.1 0.0
01/10:30am 7.0 1.8 3.6 79 1.5 NW 20 30 11 16 1010.1 - 0.0
01/10:14am 6.8 1.6 3.4 79 1.4 NW 20 32 11 17 1010.1 - 0.0
01/10:08am 6.8 1.5 3.2 78 1.5 NW 20 35 11 19 1010.1 - 0.0
01/10:00am 6.7 1.5 3.5 80 1.4 WNW 20 30 11 16 1010.3 1010.5 0.0
01/09:30am 6.3 2.1 3.6 83 1.2 NW 15 24 8 13 1010.1 - 0.0
01/09:00am 5.9 2.0 3.6 85 1.0 NW 13 17 7 9 1010.0 1010.3 1.0
01/08:30am 5.5 0.9 3.8 89 0.7 NW 17 20 9 11 1010.0 - 1.0
01/08:00am 5.3 1.5 3.8 90 0.6 NW 13 17 7 9 1009.9 1010.2 1.0
01/07:30am 5.0 1.9 3.7 91 0.5 WNW 9 17 5 9 1009.6 - 1.0
01/07:00am 4.7 0.7 3.0 89 0.7 WNW 13 20 7 11 1009.0 1009.4 1.0
01/06:30am 5.3 1.4 3.5 88 0.8 WNW 13 19 7 10 1008.7 - 1.0
01/06:00am 5.3 1.4 3.3 87 0.8 WNW 13 20 7 11 1008.5 1008.8 1.0
01/05:33am 5.4 1.5 3.3 86 0.9 NW 13 20 7 11 1007.9 - 1.0
01/05:30am 5.3 1.0 3.2 86 0.9 NW 15 22 8 12 1007.9 - 1.0
01/05:00am 6.0 1.0 3.5 84 1.1 WNW 19 24 10 13 1007.4 1007.7 1.0
01/04:30am 6.4 1.2 3.6 82 1.2 NW 20 28 11 15 1007.1 - 1.0
01/04:00am 6.4 1.4 3.4 81 1.3 WNW 19 26 10 14 1006.9 1007.2 1.0
01/03:30am 6.2 0.9 3.2 81 1.3 WNW 20 26 11 14 1006.7 - 1.0
01/03:00am 6.5 2.0 4.2 85 1.0 WNW 17 24 9 13 1006.5 1006.8 1.0
01/02:30am 6.7 3.5 5.2 90 0.7 NW 11 15 6 8 1006.3 - 1.0
01/02:00am 6.9 3.0 5.4 90 0.7 WNW 15 20 8 11 1006.3 1006.6 1.0
01/01:56am 6.8 2.5 5.4 91 0.6 WNW 17 28 9 15 1006.2 - 1.0
01/01:30am 7.0 2.2 5.8 92 0.5 WNW 20 32 11 17 1006.3 - 1.0
01/01:00am 7.1 1.6 5.7 91 0.6 WNW 24 35 13 19 1006.5 1006.8 0.8
01/12:51am 7.0 1.8 5.6 91 0.6 WNW 22 32 12 17 1006.3 - 0.6
01/12:30am 6.9 0.9 5.4 90 0.7 WNW 26 41 14 22 1006.2 - 0.4
01/12:00am 8.1 0.0 5.4 83 1.2 W 37 50 20 27 1005.6 1005.9 0.0
 
Date/Time
EST
Temp
°C
App
Temp
°C
Dew
Point
Rel
Hum
%
Delta-T
°C
Wind Press
QNH
hPa
Press
MSL
hPa
Rain
since 9 am
mm
Dir
 
Spd
km/h
Gust
km/h
Spd
kts
Gust
kts
31/11:52pm 8.5 2.1 5.3 80 1.4 W 28 50 15 27 1005.3 - 0.0
31/11:30pm 9.5 3.1 5.3 75 1.9 WNW 28 43 15 23 1005.2 - 0.0
31/11:00pm 10.2 3.8 5.0 70 2.4 WNW 28 39 15 21 1004.6 1004.9 0.0
31/10:30pm 11.1 6.3 5.4 68 2.6 WNW 20 28 11 15 1004.4 - 0.0
31/10:00pm 11.9 4.9 5.8 66 2.9 W 32 46 17 25 1004.0 1004.3 0.0
31/09:57pm 12.0 5.7 5.9 66 2.9 W 28 46 15 25 1003.9 - 0.0
31/09:30pm 12.9 6.1 6.7 66 3.0 W 32 44 17 24 1003.4 - 0.0
31/09:10pm 15.4 6.9 2.9 43 5.7 WNW 37 52 20 28 1002.4 - 0.0
31/09:00pm 15.8 8.8 2.2 40 6.2 NNW 28 37 15 20 1002.0 1002.3 0.0
31/08:49pm 16.0 8.6 2.1 39 6.2 NNW 30 56 16 30 1001.9 - 0.0
31/08:30pm 16.1 9.1 1.8 38 6.4 N 28 37 15 20 1001.4 - 0.0
31/08:00pm 15.8 11.0 2.6 41 6.0 N 17 22 9 12 1001.7 1002.0 0.0
31/07:30pm 16.0 10.9 2.8 41 6.0 N 19 26 10 14 1002.0 - 0.0
31/07:00pm 15.3 11.2 4.1 47 5.3 NNE 15 20 8 11 1002.1 1002.4 0.0
31/06:30pm 16.0 11.7 3.1 42 5.9 N 15 20 8 11 1002.4 - 0.0
31/06:00pm 16.0 11.7 3.1 42 6.0 N 15 20 8 11 1002.5 1002.8 0.0
31/05:30pm 16.4 12.1 3.5 42 6.0 N 15 19 8 10 1002.3 - 0.0
31/05:00pm 17.9 12.9 3.4 38 6.8 N 19 28 10 15 1002.3 1002.6 0.0
31/04:30pm 18.6 12.6 3.6 37 7.1 N 24 33 13 18 1002.3 - 0.0
31/04:00pm 19.0 12.8 4.4 38 7.1 N 26 37 14 20 1002.9 1003.2 0.0
31/03:30pm 19.4 11.9 3.6 35 7.5 NNW 32 44 17 24 1003.4 - 0.0
31/03:11pm 19.4 12.1 4.7 38 7.2 NNW 32 50 17 27 1003.5 - 0.0
31/03:00pm 19.4 12.4 4.3 37 7.3 N 30 44 16 24 1003.5 1003.7 0.0
31/02:30pm 19.3 12.0 4.6 38 7.1 N 32 50 17 27 1003.8 - 0.0
31/02:00pm 19.0 12.7 5.5 41 6.7 N 28 50 15 27 1004.7 1005.0 0.0
31/01:30pm 18.3 12.6 8.3 52 5.2 N 28 43 15 23 1005.2 - 0.0
31/01:00pm 18.2 13.1 7.6 50 5.4 N 24 39 13 21 1006.2 1006.5 0.0
31/12:30pm 17.4 11.9 7.5 52 5.0 N 26 37 14 20 1007.1 - 0.0
31/12:00pm 16.6 10.7 7.5 55 4.6 N 28 37 15 20 1008.1 1008.4 0.0
31/11:30am 16.3 11.4 8.3 59 4.1 N 24 35 13 19 1009.0 - 0.0
31/11:00am 15.1 10.9 7.6 61 3.8 N 19 28 10 15 1010.0 1010.3 0.0
31/10:30am 14.2 10.3 7.0 62 3.5 N 17 28 9 15 1010.7 - 0.0
31/10:00am 12.9 8.3 5.8 62 3.4 N 19 24 10 13 1011.2 1011.5 0.0
31/09:30am 12.5 8.6 5.4 62 3.3 N 15 20 8 11 1011.6 - 0.0
31/09:00am 11.8 8.6 5.0 63 3.1 N 11 22 6 12 1011.8 1012.1 0.4
31/08:30am 11.3 9.0 5.6 68 2.7 W 7 13 4 7 1012.1 - 0.4
31/08:00am 10.5 7.8 5.7 72 2.2 NNE 9 17 5 9 1012.0 1012.3 0.4
31/07:30am 9.9 7.7 6.2 78 1.7 NNE 7 11 4 6 1012.0 - 0.4
31/07:00am 9.7 6.9 7.0 83 1.3 ENE 11 15 6 8 1011.8 1012.1 0.4
31/06:30am 10.3 8.8 6.8 79 1.7 E 4 9 2 5 1012.1 - 0.4
31/06:00am 11.2 8.1 7.3 77 1.9 N 13 17 7 9 1012.1 1012.4 0.4
31/05:30am 11.4 10.6 8.1 80 1.6 E 2 9 1 5 1012.0 - 0.4
31/05:00am 11.4 11.1 8.8 84 1.3 CALM 0 0 0 0 1012.1 1012.4 0.4
31/04:30am 11.2 9.9 9.1 87 1.1 SE 6 9 3 5 1012.5 - 0.4
31/04:00am 10.8 9.9 9.2 90 0.8 SSW 4 7 2 4 1012.7 1013.0 0.4
31/03:30am 10.6 10.1 9.2 91 0.7 SE 2 7 1 4 1013.0 - 0.4
31/03:00am 11.1 9.7 9.4 89 0.9 NE 7 13 4 7 1013.4 1013.7 0.4
31/02:30am 10.8 10.0 9.6 92 0.6 SSW 4 9 2 5 1013.7 - 0.4
31/02:00am 10.7 10.6 9.3 91 0.7 CALM 0 0 0 0 1014.1 1014.5 0.4
31/01:30am 11.5 11.1 9.8 89 0.9 N 2 7 1 4 1014.4 - 0.4
31/01:00am 11.0 10.9 9.6 91 0.7 CALM 0 0 0 0 1014.7 1015.1 0.4
31/12:30am 12.0 11.2 9.7 86 1.2 NW 4 7 2 4 1014.9 - 0.4
31/12:00am 12.1 10.9 10.2 88 1.0 NW 7 11 4 6 1015.1 1015.5 0.4
 
Date/Time
EST
Temp
°C
App
Temp
°C
Dew
Point
Rel
Hum
%
Delta-T
°C
Wind Press
QNH
hPa
Press
MSL
hPa
Rain
since 9 am
mm
Dir
 
Spd
km/h
Gust
km/h
Spd
kts
Gust
kts
30/11:30pm 11.8 10.5 9.9 88 1.0 NNW 7 11 4 6 1015.4 - 0.4
30/11:00pm 12.0 10.3 9.9 87 1.1 NNW 9 13 5 7 1015.5 1015.9 0.4
30/10:30pm 12.8 10.5 10.3 85 1.3 NNW 13 17 7 9 1015.6 - 0.4
30/10:00pm 13.6 11.3 10.6 82 1.6 N 13 17 7 9 1015.9 1016.2 0.4
30/09:30pm 13.8 11.5 10.4 80 1.8 N 13 17 7 9 1016.2 - 0.4
30/09:00pm 13.7 11.9 10.7 82 1.6 N 11 13 6 7 1016.0 1016.3 0.4
30/08:30pm 13.9 12.1 10.7 81 1.7 N 11 13 6 7 1016.2 - 0.4
30/08:00pm 14.3 12.1 10.9 80 1.8 N 13 15 7 8 1016.3 1016.6 0.4
30/07:30pm 14.2 12.8 11.0 81 1.7 N 9 13 5 7 1016.5 - 0.4
30/07:00pm 14.1 12.3 10.9 81 1.7 N 11 13 6 7 1016.3 1016.6 0.4
30/06:30pm 13.4 12.4 11.1 86 1.2 N 7 9 4 5 1016.2 - 0.4
30/06:00pm 13.8 12.4 11.0 83 1.5 NNE 9 17 5 9 1016.1 1016.4 0.4
30/05:30pm 14.3 13.0 11.3 82 1.6 N 9 13 5 7 1016.1 - 0.4
30/05:00pm 14.6 13.3 11.2 80 1.8 N 9 13 5 7 1016.1 1016.4 0.4
30/04:30pm 14.9 12.8 11.3 79 1.9 N 13 17 7 9 1015.8 - 0.4
30/04:00pm 14.9 13.2 11.3 79 1.9 N 11 15 6 8 1015.8 1016.1 0.4
30/03:30pm 14.9 12.8 11.1 78 2.0 NNW 13 19 7 10 1015.9 - 0.4
30/03:00pm 15.0 12.2 11.2 78 2.0 NNW 17 24 9 13 1015.9 1016.2 0.4
30/02:30pm 14.8 11.4 11.4 80 1.8 NNW 20 32 11 17 1016.0 - 0.4
30/02:00pm 14.6 11.1 10.8 78 2.0 NW 20 33 11 18 1016.0 1016.3 0.4
30/01:30pm 14.7 11.3 11.3 80 1.8 NNW 20 28 11 15 1016.1 - 0.4
30/01:21pm 14.7 12.4 11.8 83 1.6 NNW 15 26 8 14 1016.2 - 0.4
30/01:16pm 14.8 13.6 12.7 87 1.2 NNW 11 17 6 9 1016.3 - 0.4
30/01:04pm 13.5 11.7 12.1 91 0.8 WNW 13 17 7 9 1016.6 - 0.4
30/01:00pm 13.3 11.4 11.7 90 0.9 WNW 13 19 7 10 1016.6 1016.9 0.2
30/12:53pm 13.6 10.7 11.1 85 1.3 NW 17 28 9 15 1016.7 - 0.2
30/12:40pm 14.4 11.2 11.4 82 1.6 NNW 19 28 10 15 1016.9 - 0.0
30/12:30pm 13.9 10.8 11.6 86 1.2 NNW 19 33 10 18 1017.0 - 0.0
30/12:29pm 13.9 10.6 11.6 86 1.2 NNW 20 33 11 18 1017.0 - 0.0
30/12:16pm 14.6 11.2 10.6 77 2.1 NW 19 28 10 15 1017.1 - 0.0
30/12:06pm 14.3 10.3 10.3 77 2.1 NW 22 33 12 18 1017.2 - 0.0

Other Formats:

Comma delimited format used in spreadsheet applications
http://www.bom.gov.au/fwo/IDN60801/IDN60801.95896.axf

JavaScript Object Notation format (JSON) in row-major order
http://www.bom.gov.au/fwo/IDN60801/IDN60801.95896.json